Time;durP1;ratioP1;P1;durP2;ratioP2;P2;SDS_P1;SDS_P2;PMS_P1;PMS_P2;Temp;Humidity;BMP_temperature;BMP_pressure;BME280_temperature;BME280_humidity;BME280_pressure;Samples;Min_cycle;Max_cycle;Signal;HPM_P1;HPM_P2
2022/10/29 00:00:29;;;;;;;35.47;21.03;;;14.20;99.90;;;;;;5118140;27;20272;-71
2022/10/29 00:02:54;;;;;;;39.20;22.10;;;14.20;99.90;;;;;;5136435;27;20278;-73
2022/10/29 00:05:20;;;;;;;36.47;20.37;;;14.10;99.90;;;;;;5117730;27;20194;-71
2022/10/29 00:07:45;;;;;;;39.80;22.10;;;14.10;99.90;;;;;;5136336;27;20240;-71
2022/10/29 00:10:11;;;;;;;40.23;22.40;;;14.10;99.90;;;;;;5136113;27;20190;-71
2022/10/29 00:12:37;;;;;;;39.60;23.90;;;14.10;99.90;;;;;;5117835;27;20219;-73
2022/10/29 00:15:03;;;;;;;37.97;21.43;;;14.00;99.90;;;;;;5135960;27;20198;-74
2022/10/29 00:17:29;;;;;;;36.50;22.13;;;14.00;99.90;;;;;;5117744;27;20171;-74
2022/10/29 00:19:54;;;;;;;47.10;21.70;;;14.00;99.90;;;;;;5117594;27;20800;-75
2022/10/29 00:22:20;;;;;;;39.67;21.50;;;14.00;99.90;;;;;;5136458;27;20561;-71
2022/10/29 00:24:46;;;;;;;36.07;22.10;;;14.00;99.90;;;;;;5117309;27;20252;-71
2022/10/29 00:27:11;;;;;;;31.70;21.07;;;14.00;99.90;;;;;;5136374;27;20955;-75
2022/10/29 00:29:38;;;;;;;37.97;21.07;;;14.00;99.90;;;;;;5136011;27;20271;-70
2022/10/29 00:32:04;;;;;;;34.33;20.70;;;14.00;99.90;;;;;;5136220;27;20776;-71
2022/10/29 00:34:30;;;;;;;32.33;20.80;;;14.00;99.90;;;;;;5117225;27;20227;-74
2022/10/29 00:36:55;;;;;;;31.13;21.70;;;14.00;99.90;;;;;;5136398;27;20179;-71
2022/10/29 00:39:21;;;;;;;39.43;21.93;;;14.00;99.90;;;;;;5135693;27;20178;-74
2022/10/29 00:41:46;;;;;;;37.87;21.80;;;14.00;99.90;;;;;;5136001;27;20163;-74
2022/10/29 00:44:21;;;;;;;31.40;19.13;;;14.00;99.90;;;;;;5135529;27;20207;-71
2022/10/29 00:46:51;;;;;;;34.83;21.07;;;13.90;99.90;;;;;;5135360;27;20206;-70
2022/10/29 00:49:18;;;;;;;34.90;20.53;;;13.90;99.90;;;;;;5135257;27;20443;-70
2022/10/29 00:51:44;;;;;;;37.17;20.67;;;13.90;99.90;;;;;;5116670;27;20447;-74
2022/10/29 00:54:12;;;;;;;33.53;20.30;;;13.90;99.90;;;;;;5135284;27;20849;-75
2022/10/29 00:56:59;;;;;;;31.60;21.23;;;13.90;99.90;;;;;;5135815;27;20407;-74
2022/10/29 00:59:25;;;;;;;33.20;19.40;;;13.90;99.90;;;;;;5135323;27;20427;-70
2022/10/29 01:01:51;;;;;;;37.23;22.27;;;13.90;99.90;;;;;;5100172;27;20427;-71
2022/10/29 01:04:19;;;;;;;40.80;22.50;;;13.90;99.90;;;;;;5116814;27;20418;-75
2022/10/29 01:06:45;;;;;;;35.37;21.80;;;13.90;99.90;;;;;;5116848;27;20463;-75
2022/10/29 01:09:11;;;;;;;38.83;20.50;;;13.90;99.90;;;;;;5135027;27;20456;-75
2022/10/29 01:11:43;;;;;;;35.20;20.50;;;13.90;99.90;;;;;;5135515;27;20983;-71
2022/10/29 01:14:40;;;;;;;33.90;21.80;;;13.90;99.90;;;;;;5116604;27;20202;-75
2022/10/29 01:17:15;;;;;;;36.20;22.47;;;13.90;99.90;;;;;;5116540;27;20450;-71
2022/10/29 01:20:01;;;;;;;39.73;22.20;;;13.90;99.90;;;;;;5135053;27;20437;-71
2022/10/29 01:22:44;;;;;;;49.87;21.43;;;13.90;99.90;;;;;;5134990;27;20403;-72
2022/10/29 01:25:57;;;;;;;42.93;22.80;;;13.90;99.90;;;;;;5134733;27;20863;-75
2022/10/29 01:28:40;;;;;;;37.17;21.40;;;13.90;99.90;;;;;;5116417;27;20430;-75
2022/10/29 01:31:15;;;;;;;39.07;20.80;;;13.90;99.90;;;;;;5116298;27;20443;-72
2022/10/29 01:33:50;;;;;;;42.80;23.50;;;13.90;99.90;;;;;;5116327;28;20414;-71
2022/10/29 01:36:40;;;;;;;36.10;21.53;;;13.80;99.90;;;;;;5135018;27;20939;-72
2022/10/29 01:39:22;;;;;;;41.60;23.00;;;13.90;99.90;;;;;;5134623;27;20463;-71
2022/10/29 01:41:59;;;;;;;39.90;21.23;;;13.90;99.90;;;;;;5116549;27;20418;-75
2022/10/29 01:44:46;;;;;;;39.27;22.30;;;13.90;99.90;;;;;;5134543;27;20427;-75
2022/10/29 01:47:18;;;;;;;35.43;21.47;;;13.80;99.90;;;;;;5135312;28;20561;-75
2022/10/29 01:49:58;;;;;;;41.43;21.70;;;13.90;99.90;;;;;;5134536;27;20985;-74
2022/10/29 01:52:26;;;;;;;38.53;23.10;;;13.90;99.90;;;;;;5116493;28;20929;-75
2022/10/29 01:54:52;;;;;;;42.77;22.30;;;13.90;99.90;;;;;;5134546;27;20431;-75
2022/10/29 01:57:24;;;;;;;39.93;22.10;;;13.90;99.90;;;;;;5116407;28;20415;-75
2022/10/29 01:59:50;;;;;;;39.80;23.27;;;13.90;99.90;;;;;;5137737;27;20718;-75
2022/10/29 02:02:40;;;;;;;36.10;23.03;;;13.90;99.90;;;;;;5120279;27;20467;-72
2022/10/29 02:05:26;;;;;;;44.63;25.77;;;13.90;99.90;;;;;;5120216;27;20447;-71
2022/10/29 02:08:12;;;;;;;35.00;22.97;;;13.90;99.90;;;;;;5120269;27;20449;-75
2022/10/29 02:11:16;;;;;;;44.73;25.53;;;13.90;99.90;;;;;;5138847;27;20819;-75
2022/10/29 02:13:49;;;;;;;42.43;25.00;;;13.90;99.90;;;;;;5035331;28;20429;-71
2022/10/29 02:16:15;;;;;;;51.73;24.43;;;13.90;99.90;;;;;;5122369;27;20434;-75
2022/10/29 02:18:46;;;;;;;40.90;23.10;;;13.90;99.90;;;;;;5138636;27;20456;-75
2022/10/29 02:21:19;;;;;;;42.93;25.13;;;13.90;99.90;;;;;;5138644;27;20431;-73
2022/10/29 02:23:45;;;;;;;41.40;23.70;;;14.00;99.90;;;;;;5138338;27;20431;-71
2022/10/29 02:26:12;;;;;;;57.33;29.97;;;14.00;99.90;;;;;;5138365;27;20529;-71
2022/10/29 02:28:37;;;;;;;70.47;39.17;;;14.00;99.90;;;;;;5138290;27;20399;-72
2022/10/29 02:31:04;;;;;;;75.87;40.50;;;14.00;99.90;;;;;;5119678;27;20466;-75
2022/10/29 02:33:30;;;;;;;59.33;33.03;;;14.00;99.90;;;;;;5138191;27;20183;-75
2022/10/29 02:35:55;;;;;;;59.60;30.67;;;14.00;99.90;;;;;;5138212;27;20441;-75
2022/10/29 02:38:21;;;;;;;48.97;25.90;;;14.00;99.90;;;;;;5119608;27;20183;-71
2022/10/29 02:41:42;;;;;;;50.20;27.40;;;14.00;99.90;;;;;;5138161;27;20199;-75
2022/10/29 02:44:08;;;;;;;39.63;23.20;;;14.00;99.90;;;;;;5119480;27;20178;-75
2022/10/29 02:46:38;;;;;;;43.40;25.93;;;14.00;99.90;;;;;;5138287;27;20466;-72
2022/10/29 02:49:07;;;;;;;43.00;23.17;;;14.00;99.90;;;;;;5137803;27;20168;-71
2022/10/29 02:51:33;;;;;;;43.93;23.23;;;14.00;99.90;;;;;;5119540;27;20422;-76
2022/10/29 02:53:58;;;;;;;43.30;23.30;;;14.00;99.90;;;;;;5137770;27;20403;-73
2022/10/29 02:56:24;;;;;;;42.83;24.10;;;14.00;99.90;;;;;;5137929;27;20198;-71
2022/10/29 02:58:50;;;;;;;41.17;23.70;;;14.00;99.90;;;;;;5119265;27;20258;-72
2022/10/29 03:01:15;;;;;;;41.30;24.10;;;14.00;99.90;;;;;;5119117;27;21056;-75
2022/10/29 03:03:41;;;;;;;42.50;24.40;;;13.90;99.90;;;;;;5119228;27;20652;-74
2022/10/29 03:06:15;;;;;;;43.53;24.70;;;13.90;99.90;;;;;;5137749;27;20214;-75
2022/10/29 03:08:41;;;;;;;37.70;21.60;;;13.90;99.90;;;;;;5119110;27;20224;-71
2022/10/29 03:11:07;;;;;;;43.20;23.50;;;13.90;99.90;;;;;;5136469;27;20439;-75
2022/10/29 03:13:32;;;;;;;48.67;26.13;;;13.90;99.90;;;;;;5119111;27;20207;-74
2022/10/29 03:15:58;;;;;;;48.30;25.23;;;13.90;99.90;;;;;;5137588;27;20441;-75
2022/10/29 03:18:23;;;;;;;40.50;22.27;;;13.90;99.90;;;;;;5137330;27;20175;-71
2022/10/29 03:20:49;;;;;;;42.10;22.83;;;13.90;99.90;;;;;;5137485;27;20199;-75
2022/10/29 03:23:15;;;;;;;40.73;24.27;;;13.90;99.90;;;;;;5137518;27;20179;-71
2022/10/29 03:25:40;;;;;;;46.07;26.37;;;13.90;99.90;;;;;;5137084;27;20222;-72
2022/10/29 03:28:06;;;;;;;39.37;23.10;;;13.90;99.90;;;;;;5137112;27;20171;-71
2022/10/29 03:30:32;;;;;;;40.53;23.03;;;13.90;99.90;;;;;;5136992;27;20296;-71
2022/10/29 03:32:57;;;;;;;46.27;25.80;;;13.90;99.90;;;;;;5137124;27;20179;-74
2022/10/29 03:35:23;;;;;;;40.03;23.70;;;13.90;99.90;;;;;;5118479;27;20205;-71
2022/10/29 03:37:52;;;;;;;39.03;24.50;;;13.90;99.90;;;;;;5118627;27;20550;-74
2022/10/29 03:40:19;;;;;;;45.47;25.50;;;13.90;99.90;;;;;;5118487;27;20564;-72
2022/10/29 03:42:44;;;;;;;40.77;23.00;;;13.80;99.90;;;;;;5118481;27;20502;-75
2022/10/29 03:45:10;;;;;;;48.30;25.77;;;13.80;99.90;;;;;;5136691;27;20511;-71
2022/10/29 03:47:36;;;;;;;43.50;25.00;;;13.90;99.90;;;;;;5118246;27;20470;-75
2022/10/29 03:50:03;;;;;;;44.67;24.53;;;13.90;99.90;;;;;;5136459;27;20934;-71
2022/10/29 03:52:28;;;;;;;46.80;25.00;;;13.90;99.90;;;;;;5118208;27;20790;-75
2022/10/29 03:54:54;;;;;;;46.10;23.00;;;13.90;99.90;;;;;;5118178;27;20423;-72
2022/10/29 03:57:20;;;;;;;51.80;24.07;;;13.90;99.90;;;;;;5118282;27;20273;-71
2022/10/29 03:59:46;;;;;;;46.40;24.77;;;13.80;99.90;;;;;;5118138;27;20199;-71
2022/10/29 04:02:11;;;;;;;58.37;23.70;;;13.80;99.90;;;;;;5118384;27;20179;-71
2022/10/29 04:04:38;;;;;;;44.47;23.53;;;13.80;99.90;;;;;;5136212;27;20437;-71
2022/10/29 04:07:03;;;;;;;43.30;23.97;;;13.80;99.90;;;;;;5118147;27;20597;-75
2022/10/29 04:09:29;;;;;;;39.40;22.33;;;13.70;99.90;;;;;;5117911;27;20565;-75
2022/10/29 04:11:55;;;;;;;46.50;26.07;;;13.70;99.90;;;;;;5118082;27;20423;-75
2022/10/29 04:14:21;;;;;;;42.33;24.10;;;13.70;99.90;;;;;;5136185;27;20488;-71
2022/10/29 04:16:46;;;;;;;43.33;24.83;;;13.60;99.90;;;;;;5136617;27;20523;-75
2022/10/29 04:19:12;;;;;;;44.43;24.50;;;13.60;99.90;;;;;;5117626;27;20181;-71
2022/10/29 04:21:38;;;;;;;45.17;25.17;;;13.60;99.90;;;;;;5117527;27;20179;-71
2022/10/29 04:24:04;;;;;;;46.03;24.40;;;13.60;99.90;;;;;;5117536;27;20214;-71
2022/10/29 04:26:29;;;;;;;45.23;23.97;;;13.50;99.90;;;;;;5136139;27;20639;-71
2022/10/29 04:28:55;;;;;;;45.53;24.47;;;13.50;99.90;;;;;;5135955;27;20435;-70
2022/10/29 04:31:21;;;;;;;47.23;25.60;;;13.50;99.90;;;;;;5100656;27;20260;-75
2022/10/29 04:33:47;;;;;;;44.27;24.40;;;13.50;99.90;;;;;;5117324;27;20171;-71
2022/10/29 04:36:12;;;;;;;41.73;24.50;;;13.40;99.90;;;;;;5136006;27;20187;-74
2022/10/29 04:38:38;;;;;;;42.60;23.00;;;13.40;99.90;;;;;;5117356;27;20219;-74
2022/10/29 04:41:04;;;;;;;49.73;25.40;;;13.40;99.90;;;;;;5135625;27;20191;-75
2022/10/29 04:43:30;;;;;;;46.53;25.93;;;13.50;99.90;;;;;;5117247;27;20183;-71
2022/10/29 04:45:57;;;;;;;45.10;24.87;;;13.40;99.90;;;;;;5135777;27;20959;-75
2022/10/29 04:48:26;;;;;;;44.07;24.20;;;13.40;99.90;;;;;;5117100;27;20175;-71
2022/10/29 04:50:51;;;;;;;51.77;24.27;;;13.40;99.90;;;;;;5135828;27;20454;-75
2022/10/29 04:53:17;;;;;;;44.70;24.30;;;13.50;99.90;;;;;;5117036;27;20412;-71
2022/10/29 04:55:44;;;;;;;53.63;26.03;;;13.50;99.90;;;;;;5117049;27;20205;-75
2022/10/29 04:58:15;;;;;;;51.43;25.30;;;13.50;99.90;;;;;;5116841;27;20423;-75
2022/10/29 05:00:41;;;;;;;42.10;24.03;;;13.50;99.90;;;;;;5116850;27;20443;-74
2022/10/29 05:03:08;;;;;;;57.10;24.40;;;13.50;99.90;;;;;;5116850;27;20407;-71
2022/10/29 05:05:35;;;;;;;52.03;27.20;;;13.50;99.90;;;;;;5116769;27;20441;-71
2022/10/29 05:08:03;;;;;;;45.03;23.40;;;13.50;99.90;;;;;;5135249;27;20851;-71
2022/10/29 05:10:31;;;;;;;51.43;25.10;;;13.50;99.90;;;;;;5116955;27;20804;-75
2022/10/29 05:13:15;;;;;;;47.40;24.87;;;13.50;99.90;;;;;;5135203;27;20411;-75
2022/10/29 05:15:41;;;;;;;43.00;23.60;;;13.50;99.90;;;;;;5135237;27;20431;-75
2022/10/29 05:18:07;;;;;;;44.07;25.50;;;13.50;99.90;;;;;;5116603;27;20785;-71
2022/10/29 05:20:34;;;;;;;45.30;25.30;;;13.50;99.90;;;;;;5135108;27;20190;-75
2022/10/29 05:23:08;;;;;;;49.17;25.00;;;13.60;99.90;;;;;;5116502;27;20412;-75
2022/10/29 05:25:36;;;;;;;43.87;25.03;;;13.60;99.90;;;;;;5116380;27;20812;-75
2022/10/29 05:28:28;;;;;;;50.27;26.83;;;13.60;99.90;;;;;;5116466;28;20403;-71
2022/10/29 05:30:53;;;;;;;52.00;24.57;;;13.60;99.90;;;;;;5111797;27;20455;-75
2022/10/29 05:33:22;;;;;;;45.00;24.80;;;13.60;99.90;;;;;;5115812;28;20954;-71
2022/10/29 05:35:48;;;;;;;43.77;23.87;;;13.60;99.90;;;;;;5134947;27;20194;-75
2022/10/29 05:38:15;;;;;;;53.53;27.23;;;13.60;99.90;;;;;;5116389;28;21008;-72
2022/10/29 05:40:44;;;;;;;47.97;25.57;;;13.60;99.90;;;;;;5116235;28;20423;-74
2022/10/29 05:43:14;;;;;;;46.10;23.93;;;13.60;99.90;;;;;;5116281;28;20834;-71
2022/10/29 05:45:41;;;;;;;46.63;24.27;;;13.50;99.90;;;;;;5115915;28;20866;-75
2022/10/29 05:48:07;;;;;;;46.67;23.50;;;13.50;99.90;;;;;;5134645;28;20411;-75
2022/10/29 05:50:33;;;;;;;45.33;24.80;;;13.50;99.90;;;;;;5116139;28;20467;-74
2022/10/29 05:53:01;;;;;;;48.77;26.60;;;13.50;99.90;;;;;;5116150;28;20460;-74
2022/10/29 05:55:28;;;;;;;47.23;23.20;;;13.50;99.90;;;;;;5116157;28;20427;-72
2022/10/29 05:57:55;;;;;;;45.57;24.07;;;13.50;99.90;;;;;;5116116;28;20417;-74
2022/10/29 06:00:21;;;;;;;45.13;23.90;;;13.50;99.90;;;;;;5134505;27;20492;-74
2022/10/29 06:02:47;;;;;;;52.67;25.53;;;13.50;99.90;;;;;;5134597;28;20451;-75
2022/10/29 06:05:12;;;;;;;55.87;27.77;;;13.50;99.90;;;;;;5134332;27;20195;-74
2022/10/29 06:07:38;;;;;;;42.03;24.20;;;13.50;99.90;;;;;;5134410;28;20246;-71
2022/10/29 06:10:04;;;;;;;48.33;26.43;;;13.50;99.90;;;;;;5134254;27;20656;-71
2022/10/29 06:12:31;;;;;;;43.10;23.80;;;13.50;99.90;;;;;;5134344;28;20172;-75
2022/10/29 06:14:57;;;;;;;40.33;23.23;;;13.50;99.90;;;;;;5115926;28;20845;-75
2022/10/29 06:17:23;;;;;;;42.63;23.90;;;13.50;99.90;;;;;;5115969;28;20445;-72
2022/10/29 06:19:48;;;;;;;46.33;27.13;;;13.50;99.90;;;;;;5134338;27;20203;-71
2022/10/29 06:22:14;;;;;;;48.07;26.00;;;13.60;99.90;;;;;;5116262;28;20182;-75
2022/10/29 06:24:39;;;;;;;44.20;24.60;;;13.60;99.90;;;;;;5115657;28;20283;-75
2022/10/29 06:27:05;;;;;;;44.60;22.77;;;13.60;99.90;;;;;;5134910;28;20218;-71
2022/10/29 06:29:31;;;;;;;48.70;24.83;;;13.60;99.90;;;;;;5115969;28;20222;-72
2022/10/29 06:31:56;;;;;;;39.73;23.60;;;13.60;99.90;;;;;;5116004;28;20224;-75
2022/10/29 06:34:22;;;;;;;37.63;23.17;;;13.60;99.90;;;;;;5115723;27;20186;-72
2022/10/29 06:36:47;;;;;;;45.27;23.43;;;13.60;99.90;;;;;;5134633;28;20175;-74
2022/10/29 06:39:13;;;;;;;36.13;21.53;;;13.60;99.90;;;;;;5134191;27;20182;-75
2022/10/29 06:41:39;;;;;;;52.37;26.97;;;13.60;99.90;;;;;;5115927;28;20186;-72
2022/10/29 06:44:04;;;;;;;44.70;23.30;;;13.60;99.90;;;;;;5134145;27;20202;-71
2022/10/29 06:46:30;;;;;;;48.63;25.73;;;13.50;99.90;;;;;;5119773;27;20218;-71
2022/10/29 06:48:55;;;;;;;48.47;24.80;;;13.50;99.90;;;;;;5138033;27;20198;-71
2022/10/29 06:51:24;;;;;;;42.40;24.27;;;13.50;99.90;;;;;;5119569;27;20199;-71
2022/10/29 06:53:49;;;;;;;42.57;22.00;;;13.50;99.90;;;;;;5118159;27;20199;-71
2022/10/29 06:56:15;;;;;;;47.20;23.73;;;13.50;99.90;;;;;;5119459;27;20853;-74
2022/10/29 06:58:41;;;;;;;41.83;22.47;;;13.50;99.90;;;;;;5136587;27;20172;-75
2022/10/29 07:01:06;;;;;;;42.37;22.00;;;13.50;99.90;;;;;;5119405;27;20606;-74
2022/10/29 07:03:32;;;;;;;42.07;23.10;;;13.50;99.90;;;;;;5137766;27;20178;-75
2022/10/29 07:05:58;;;;;;;43.40;23.80;;;13.50;99.90;;;;;;5119238;27;20277;-74
2022/10/29 07:08:24;;;;;;;46.97;25.17;;;13.50;99.90;;;;;;5137609;27;20183;-74
2022/10/29 07:10:52;;;;;;;41.83;21.60;;;13.40;99.90;;;;;;5137667;27;20778;-71
2022/10/29 07:13:17;;;;;;;36.50;22.07;;;13.40;99.90;;;;;;5137369;27;20773;-74
2022/10/29 07:15:43;;;;;;;35.80;22.00;;;13.40;99.90;;;;;;5118895;27;20450;-74
2022/10/29 07:18:10;;;;;;;38.07;21.40;;;13.40;99.90;;;;;;5117165;27;20224;-71
2022/10/29 07:20:38;;;;;;;47.33;24.00;;;13.30;99.90;;;;;;5116720;27;20225;-75
2022/10/29 07:23:04;;;;;;;41.07;20.60;;;13.30;99.90;;;;;;5135041;27;20415;-74
2022/10/29 07:25:31;;;;;;;35.07;19.53;;;13.30;99.90;;;;;;5134686;27;20481;-71
2022/10/29 07:28:15;;;;;;;41.07;20.30;;;13.20;99.90;;;;;;5116556;27;20440;-71
2022/10/29 07:30:41;;;;;;;35.30;20.00;;;13.20;99.90;;;;;;5133820;27;20427;-71
2022/10/29 07:33:07;;;;;;;38.03;21.17;;;13.20;99.90;;;;;;5116087;27;20419;-71
2022/10/29 07:35:34;;;;;;;37.57;21.83;;;13.10;99.90;;;;;;5118643;27;20462;-72
2022/10/29 07:38:01;;;;;;;35.63;20.73;;;13.10;99.90;;;;;;5136991;27;20955;-70
2022/10/29 07:40:26;;;;;;;40.50;22.43;;;13.10;99.90;;;;;;5136935;27;20434;-74
2022/10/29 07:42:52;;;;;;;43.73;20.60;;;13.10;99.90;;;;;;5136934;27;20403;-71
2022/10/29 07:45:18;;;;;;;34.20;20.03;;;13.10;99.90;;;;;;5136771;27;20693;-74
2022/10/29 07:47:44;;;;;;;35.80;21.37;;;13.20;99.90;;;;;;5135845;27;20561;-71
2022/10/29 07:50:11;;;;;;;36.20;20.80;;;13.20;99.90;;;;;;5150401;27;20435;-74
2022/10/29 07:52:38;;;;;;;38.23;21.70;;;13.20;99.90;;;;;;5134585;27;20164;-74
2022/10/29 07:55:04;;;;;;;44.00;23.60;;;13.30;99.90;;;;;;5116074;27;20442;-75
2022/10/29 07:57:29;;;;;;;44.97;26.23;;;13.30;99.90;;;;;;5115264;27;20951;-72
2022/10/29 07:59:55;;;;;;;45.50;24.33;;;13.30;99.90;;;;;;5134196;27;20426;-71
2022/10/29 08:02:21;;;;;;;39.80;23.40;;;13.30;99.90;;;;;;5116179;27;20175;-71
2022/10/29 08:04:46;;;;;;;41.50;22.87;;;13.30;99.90;;;;;;5117991;27;20271;-71
2022/10/29 08:07:12;;;;;;;40.03;22.00;;;13.40;99.90;;;;;;5136795;27;20199;-74
2022/10/29 08:09:38;;;;;;;45.83;29.90;;;13.40;99.90;;;;;;5152258;27;20199;-71
2022/10/29 08:12:05;;;;;;;29.37;20.23;;;13.40;99.90;;;;;;5136841;27;20182;-75
2022/10/29 08:14:31;;;;;;;34.80;19.80;;;13.40;99.90;;;;;;5117844;27;20245;-71
2022/10/29 08:16:57;;;;;;;33.20;19.80;;;13.40;99.90;;;;;;5136656;27;20411;-71
2022/10/29 08:19:22;;;;;;;37.07;20.40;;;13.40;99.90;;;;;;5152065;27;20171;-75
2022/10/29 08:21:48;;;;;;;44.20;21.30;;;13.40;99.90;;;;;;5117670;27;20214;-71
2022/10/29 08:24:15;;;;;;;38.27;21.00;;;13.40;99.90;;;;;;5117319;27;20175;-71
2022/10/29 08:26:41;;;;;;;38.17;22.33;;;13.30;99.90;;;;;;5117543;27;20211;-71
2022/10/29 08:29:06;;;;;;;36.57;21.07;;;13.40;99.90;;;;;;5135898;27;20419;-71
2022/10/29 08:31:32;;;;;;;36.00;22.20;;;13.40;99.90;;;;;;5136365;27;20438;-75
2022/10/29 08:33:58;;;;;;;34.73;21.10;;;13.30;99.90;;;;;;5135804;27;20171;-73
2022/10/29 08:36:23;;;;;;;33.20;20.87;;;13.40;99.90;;;;;;5135620;27;20266;-75
2022/10/29 08:38:49;;;;;;;32.93;20.10;;;13.40;99.90;;;;;;5135775;27;20183;-73
2022/10/29 08:41:55;;;;;;;32.80;21.23;;;13.40;99.90;;;;;;5135820;27;20190;-71
2022/10/29 08:44:55;;;;;;;36.03;20.13;;;13.40;99.90;;;;;;5028302;27;20186;-71
2022/10/29 08:47:22;;;;;;;34.23;20.10;;;13.40;99.90;;;;;;5136042;27;20461;-75
2022/10/29 08:50:03;;;;;;;31.80;20.53;;;13.40;99.90;;;;;;5135614;27;20415;-71
2022/10/29 08:52:34;;;;;;;29.87;17.83;;;13.40;99.90;;;;;;5117146;27;20780;-75
2022/10/29 08:55:02;;;;;;;32.60;20.63;;;13.40;99.90;;;;;;5135436;27;20423;-72
2022/10/29 08:57:32;;;;;;;37.53;22.33;;;13.50;99.90;;;;;;5135482;27;20419;-71
2022/10/29 09:00:22;;;;;;;38.37;24.07;;;13.50;99.90;;;;;;5135385;27;20469;-75
2022/10/29 09:02:55;;;;;;;42.83;25.00;;;13.50;99.90;;;;;;5134773;27;20950;-75
2022/10/29 09:05:28;;;;;;;37.57;23.70;;;13.50;99.90;;;;;;5116750;27;20534;-71
2022/10/29 09:08:01;;;;;;;43.40;27.53;;;13.50;99.90;;;;;;5116082;28;20428;-72
2022/10/29 09:10:44;;;;;;;38.13;22.63;;;13.50;99.90;;;;;;5135142;27;20933;-75
2022/10/29 09:13:31;;;;;;;40.70;23.87;;;13.60;99.90;;;;;;5135181;27;20415;-72
2022/10/29 09:16:07;;;;;;;42.23;29.30;;;13.60;99.90;;;;;;5135688;27;20453;-75
2022/10/29 09:18:47;;;;;;;43.83;24.67;;;13.60;99.90;;;;;;5135250;27;20895;-71
2022/10/29 09:21:28;;;;;;;55.70;41.03;;;13.70;99.90;;;;;;5134961;27;20942;-75
2022/10/29 09:24:18;;;;;;;66.30;42.93;;;13.70;99.90;;;;;;5116566;27;20429;-76
2022/10/29 09:27:23;;;;;;;40.90;24.77;;;13.80;99.90;;;;;;5135407;27;20898;-75
2022/10/29 09:30:06;;;;;;;44.80;23.20;;;13.80;99.90;;;;;;5129699;27;20443;-75
2022/10/29 09:32:56;;;;;;;33.83;21.30;;;13.90;99.90;;;;;;5134938;27;20392;-75
2022/10/29 09:35:37;;;;;;;36.47;21.10;;;13.90;99.90;;;;;;5134819;27;21040;-75
2022/10/29 09:38:11;;;;;;;38.40;21.80;;;13.90;99.90;;;;;;5134867;27;20395;-75
2022/10/29 09:40:39;;;;;;;35.93;21.33;;;13.90;99.90;;;;;;5133693;27;20562;-73
2022/10/29 09:43:16;;;;;;;45.20;26.63;;;14.00;99.90;;;;;;5133446;27;20922;-75
2022/10/29 09:46:03;;;;;;;44.87;26.67;;;14.00;99.90;;;;;;5133412;27;20521;-72
2022/10/29 09:48:37;;;;;;;42.10;25.23;;;14.00;99.90;;;;;;5134847;27;20427;-72
2022/10/29 09:51:22;;;;;;;49.83;34.50;;;14.00;99.90;;;;;;5116225;28;20454;-72
2022/10/29 09:53:50;;;;;;;42.67;24.50;;;14.00;99.90;;;;;;5134746;28;20395;-72
2022/10/29 09:56:16;;;;;;;49.37;23.80;;;14.10;99.90;;;;;;5134674;28;20789;-72
2022/10/29 09:58:45;;;;;;;44.20;23.10;;;14.10;99.90;;;;;;5134668;28;20419;-75
2022/10/29 10:01:12;;;;;;;40.57;24.37;;;14.10;99.90;;;;;;5099584;28;20442;-71
2022/10/29 10:03:44;;;;;;;45.03;25.30;;;14.20;99.90;;;;;;5114638;28;20831;-76
2022/10/29 10:06:13;;;;;;;35.87;23.33;;;14.10;99.90;;;;;;5134184;27;20561;-71
2022/10/29 10:08:58;;;;;;;38.97;23.13;;;14.10;99.90;;;;;;5115515;28;20954;-75
2022/10/29 10:11:27;;;;;;;41.37;24.10;;;14.10;99.90;;;;;;5134344;27;20442;-71
2022/10/29 10:13:57;;;;;;;44.73;23.37;;;14.10;99.90;;;;;;5115586;28;20403;-75
2022/10/29 10:16:25;;;;;;;49.13;26.10;;;14.20;99.90;;;;;;5134386;27;20435;-75
2022/10/29 10:18:51;;;;;;;41.53;24.33;;;14.20;99.90;;;;;;5115626;27;20419;-75
2022/10/29 10:21:31;;;;;;;41.87;24.10;;;14.20;99.90;;;;;;5138383;27;20945;-72
2022/10/29 10:23:58;;;;;;;40.63;22.93;;;14.20;99.90;;;;;;5135831;27;20202;-72
2022/10/29 10:26:34;;;;;;;41.70;23.07;;;14.30;99.90;;;;;;5137833;27;20470;-75
2022/10/29 10:29:21;;;;;;;47.83;24.80;;;14.30;99.90;;;;;;5136749;27;20539;-76
2022/10/29 10:31:48;;;;;;;47.70;26.60;;;14.30;99.90;;;;;;5119550;27;20430;-72
2022/10/29 10:34:21;;;;;;;34.63;24.40;;;14.30;99.90;;;;;;5138135;27;20744;-72
2022/10/29 10:37:14;;;;;;;46.70;25.53;;;14.40;99.90;;;;;;5138482;27;20420;-72
2022/10/29 10:39:42;;;;;;;48.83;26.90;;;14.40;99.90;;;;;;5106305;27;20814;-72
2022/10/29 10:42:27;;;;;;;50.40;32.63;;;14.40;99.90;;;;;;5137313;27;20991;-72
2022/10/29 10:44:59;;;;;;;35.00;22.53;;;14.40;99.90;;;;;;5137289;27;20435;-75
2022/10/29 10:47:29;;;;;;;37.33;23.53;;;14.40;99.90;;;;;;5117088;27;20501;-75
2022/10/29 10:50:17;;;;;;;40.70;25.83;;;14.40;99.90;;;;;;5118512;27;20465;-72
2022/10/29 10:52:44;;;;;;;44.30;25.43;;;14.40;99.90;;;;;;5117778;27;20407;-75
2022/10/29 10:55:45;;;;;;;38.00;23.10;;;14.30;99.90;;;;;;5119168;27;20423;-75
2022/10/29 10:58:25;;;;;;;40.80;23.40;;;14.40;99.90;;;;;;5101537;27;20962;-75
2022/10/29 11:00:58;;;;;;;41.93;23.90;;;14.40;99.90;;;;;;5137850;27;20833;-75
2022/10/29 11:03:49;;;;;;;43.73;25.87;;;14.40;99.90;;;;;;5119367;27;20840;-76
2022/10/29 11:06:35;;;;;;;46.13;25.57;;;14.50;99.90;;;;;;5117765;27;20482;-75
2022/10/29 11:09:19;;;;;;;41.80;25.60;;;14.50;99.90;;;;;;5137621;27;20407;-72
2022/10/29 11:11:55;;;;;;;37.67;23.30;;;14.50;99.90;;;;;;5137427;27;20461;-75
2022/10/29 11:14:31;;;;;;;39.93;24.40;;;14.60;99.90;;;;;;5137789;27;20423;-75
2022/10/29 11:17:00;;;;;;;43.97;24.70;;;14.70;99.90;;;;;;5119359;27;20419;-72
2022/10/29 11:19:49;;;;;;;44.73;24.77;;;14.70;99.90;;;;;;5137273;27;20455;-75
2022/10/29 11:22:23;;;;;;;40.40;24.43;;;14.80;99.90;;;;;;5137996;27;20454;-75
2022/10/29 11:25:09;;;;;;;41.83;23.67;;;14.80;99.90;;;;;;5137112;27;20522;-71
2022/10/29 11:28:04;;;;;;;42.27;25.03;;;14.90;99.90;;;;;;5118694;27;20536;-75
2022/10/29 11:30:37;;;;;;;37.20;24.17;;;14.90;99.90;;;;;;5029460;27;20471;-75
2022/10/29 11:33:34;;;;;;;38.73;24.20;;;14.90;99.90;;;;;;5136602;27;20446;-72
2022/10/29 11:36:09;;;;;;;43.43;28.77;;;15.00;99.90;;;;;;5118600;27;20495;-72
2022/10/29 11:38:55;;;;;;;38.93;27.30;;;15.00;99.90;;;;;;5118742;27;20833;-72
2022/10/29 11:41:38;;;;;;;40.27;24.67;;;15.00;99.90;;;;;;5118669;27;20447;-75
2022/10/29 11:44:11;;;;;;;43.40;23.97;;;15.00;99.90;;;;;;5136897;27;20487;-72
2022/10/29 11:46:43;;;;;;;40.80;23.37;;;15.00;99.90;;;;;;5137104;27;20549;-75
2022/10/29 11:49:11;;;;;;;39.43;24.87;;;15.00;99.90;;;;;;5136703;27;20411;-75
2022/10/29 11:51:37;;;;;;;40.10;23.47;;;15.00;99.90;;;;;;5135830;27;20418;-76
2022/10/29 11:54:08;;;;;;;37.87;24.93;;;15.00;99.90;;;;;;5117179;27;20931;-72
2022/10/29 11:56:49;;;;;;;40.23;24.87;;;15.00;99.90;;;;;;5136089;27;20257;-75
2022/10/29 11:59:31;;;;;;;39.13;23.63;;;14.90;99.90;;;;;;5136228;27;20427;-75
2022/10/29 12:02:12;;;;;;;35.17;23.07;;;15.00;99.90;;;;;;5118134;27;20829;-72
2022/10/29 12:04:48;;;;;;;41.83;25.83;;;14.90;99.90;;;;;;5117555;27;20457;-76
2022/10/29 12:07:29;;;;;;;41.23;25.40;;;15.00;99.90;;;;;;5118012;27;20466;-75
2022/10/29 12:10:30;;;;;;;37.67;24.20;;;15.00;99.90;;;;;;5136274;27;20927;-75
2022/10/29 12:13:00;;;;;;;44.90;29.70;;;15.00;99.90;;;;;;5117872;27;20430;-75
2022/10/29 12:15:35;;;;;;;53.20;35.70;;;15.10;99.90;;;;;;5136224;27;20423;-72
2022/10/29 12:18:11;;;;;;;67.13;42.07;;;15.10;99.90;;;;;;5117927;27;20422;-75
2022/10/29 12:21:14;;;;;;;45.23;29.13;;;15.10;99.90;;;;;;5136175;27;20476;-75
2022/10/29 12:23:52;;;;;;;54.07;29.17;;;15.20;99.90;;;;;;5136159;27;20438;-75
2022/10/29 12:26:30;;;;;;;93.07;53.20;;;15.20;99.90;;;;;;5117495;27;20486;-72
2022/10/29 12:29:38;;;;;;;51.67;34.13;;;15.20;99.90;;;;;;5136058;27;20451;-75
2022/10/29 12:32:15;;;;;;;43.60;27.70;;;15.20;99.90;;;;;;5087317;27;20415;-72
2022/10/29 12:35:05;;;;;;;35.87;22.43;;;15.20;99.90;;;;;;5135922;27;20918;-72
2022/10/29 12:37:54;;;;;;;37.57;22.40;;;15.20;99.90;;;;;;5086804;27;20877;-72
2022/10/29 12:40:24;;;;;;;32.57;22.67;;;15.30;99.90;;;;;;5117296;27;20447;-72
2022/10/29 12:42:50;;;;;;;32.87;22.23;;;15.30;99.90;;;;;;5117126;27;20771;-72
2022/10/29 12:45:42;;;;;;;36.83;22.27;;;15.30;99.90;;;;;;5135618;27;20419;-72
2022/10/29 12:48:49;;;;;;;33.43;22.63;;;15.40;99.90;;;;;;5117129;27;20480;-72
2022/10/29 12:51:33;;;;;;;35.40;23.60;;;15.40;99.90;;;;;;5114927;27;20841;-75